Latest Coastal Weather Observations for Hogan Island

IDT60701

Issued at 1:42 pm EDT Tuesday 2 March 2021 (issued every 10 minutes, with the page automatically refreshed every 10 minutes)

About coastal observations | Map of coastal stations | Coastal observations for TAS | Marine services | Other Formats
Station Details ID: 200838 Name: HOGAN ISLAND Lat: -39.22 Lon: 146.98 Height: 116.0 m
Data from the previous 72 hours. | See also: Recent months at Hogan Island
Date/Time
EDT
Wind Sea
Height
m
Swell Vis
km
Cloud Weather Temp
°C
Press
MSL
hPa
Rain since
9am
mm
Dir  Spd
kts
Gust
kts
Height
m
Period
s
Dir
02/01:30pm WSW 31 36 - - - - - - - 16.5 1015.2 0.0
02/01:00pm WSW 31 37 - - - - - - - 15.1 - 0.0
02/12:30pm WSW 29 35 - - - - - - - 14.3 - 0.0
02/12:00pm WSW 30 37 - - - - - - - 15.7 1015.0 0.0
02/11:30am WSW 33 41 - - - - - - - 14.0 - 0.0
02/11:24am WSW 31 41 - - - - - - - 13.7 - 0.0
02/11:00am WSW 33 40 - - - - - - - 14.6 - 0.0
02/10:30am WSW 32 39 - - - - - - - 13.8 - 0.0
02/10:00am WSW 33 40 - - - - - - - 13.5 - 0.0
02/09:30am WSW 32 39 - - - - - - - 14.0 - 0.0
02/09:00am WSW 34 40 - - - - - - - 13.2 1013.6 0.6
02/08:30am WSW 33 43 - - - - - - - 13.1 - 0.6
02/08:29am WSW 33 43 - - - - - - - 13.2 - 0.6
02/08:00am WSW 34 43 - - - - - - - 13.1 - 0.6
02/07:30am WSW 32 39 - - - - - - - 12.6 - 0.6
02/07:00am WSW 34 42 - - - - - - - 12.5 - 0.6
02/06:30am WSW 35 41 - - - - - - - 12.4 - 0.6
02/06:00am WSW 36 41 - - - - - - - 12.6 1012.3 0.6
02/05:30am WSW 33 39 - - - - - - - 12.9 - 0.6
02/05:00am WSW 36 43 - - - - - - - 12.7 - 0.6
02/04:30am WSW 36 43 - - - - - - - 12.8 - 0.6
02/04:00am WSW 36 43 - - - - - - - 12.9 - 0.6
02/03:30am WSW 35 43 - - - - - - - 12.8 - 0.6
02/03:00am WSW 35 41 - - - - - - - 13.1 1011.9 0.6
02/02:30am WSW 38 45 - - - - - - - 12.6 - 0.6
02/02:16am WSW 36 46 - - - - - - - 12.7 - 0.6
02/02:00am WSW 38 43 - - - - - - - 12.5 - 0.6
02/01:30am WSW 39 46 - - - - - - - 13.0 - 0.6
02/01:00am WSW 39 47 - - - - - - - 12.8 - 0.6
02/12:38am WSW 37 48 - - - - - - - 13.1 - 0.6
02/12:30am WSW 40 48 - - - - - - - 13.2 - 0.6
02/12:05am WSW 37 47 - - - - - - - 13.4 - 0.6
02/12:00am WSW 37 44 - - - - - - - 13.4 1011.3 0.6
 
Date/Time
EDT
Wind Sea
Height
m
Swell Vis
km
Cloud Weather Temp
°C
Press
MSL
hPa
Rain since
9am
mm
Dir  Spd
kts
Gust
kts
Height
m
Period
s
Dir
01/11:30pm WSW 40 48 - - - - - - - 13.3 - 0.6
01/11:00pm WSW 38 44 - - - - - - - 13.7 - 0.6
01/10:54pm WSW 38 48 - - - - - - - 13.7 - 0.6
01/10:30pm WSW 40 47 - - - - - - - 13.6 - 0.6
01/10:00pm WSW 41 48 - - - - - - - 13.7 - 0.6
01/09:30pm W 41 48 - - - - - - - 13.8 - 0.6
01/09:00pm WSW 40 46 - - - - - - - 13.8 1010.7 0.6
01/08:30pm W 43 50 - - - - - - - 14.1 - 0.6
01/08:00pm W 41 51 - - - - - - - 14.3 - 0.6
01/07:30pm W 44 54 - - - - - - - 14.3 - 0.6
01/07:29pm W 44 54 - - - - - - - 14.2 - 0.6
01/07:00pm W 43 51 - - - - - - - 14.7 - 0.6
01/06:46pm W 44 54 - - - - - - - 14.6 - 0.6
01/06:30pm WSW 44 53 - - - - - - - 15.0 - 0.6
01/06:21pm WSW 42 53 - - - - - - - 14.7 - 0.6
01/06:00pm W 40 49 - - - - - - - 15.2 1008.0 0.6
01/05:30pm WSW 40 47 - - - - - - - 14.4 - 0.6
01/05:00pm W 43 54 - - - - - - - 14.4 - 0.6
01/04:53pm W 41 54 - - - - - - - 14.6 - 0.4
01/04:30pm W 43 49 - - - - - - - 17.7 - 0.0
01/04:00pm W 43 49 - - - - - - - 17.3 - 0.0
01/03:30pm W 38 45 - - - - - - - 17.2 - 0.0
01/03:00pm W 33 39 - - - - - - - 18.5 1007.8 0.0
01/02:30pm W 33 39 - - - - - - - 19.1 - 0.0
01/02:00pm W 30 35 - - - - - - - 19.4 - 0.0
01/01:30pm W 32 37 - - - - - - - 17.2 - 0.0
01/01:00pm W 33 37 - - - - - - - 19.7 - 0.0
01/12:30pm W 28 33 - - - - - - - 18.7 - 0.0
01/12:00pm W 28 33 - - - - - - - 18.9 1008.7 0.0
01/11:30am W 27 31 - - - - - - - 18.4 - 0.0
01/11:00am W 26 30 - - - - - - - 18.4 - 0.0
01/10:30am W 23 27 - - - - - - - 17.2 - 0.0
01/10:00am W 21 25 - - - - - - - 17.6 - 0.0
01/09:30am W 22 26 - - - - - - - 16.9 - 0.0
01/09:00am W 21 23 - - - - - - - 17.5 1008.6 0.0
01/08:30am WSW 20 22 - - - - - - - 16.6 - 0.0
01/08:00am WSW 20 23 - - - - - - - 16.4 - 0.0
01/07:30am WSW 17 20 - - - - - - - 16.3 - 0.0
01/07:00am WSW 16 19 - - - - - - - 16.4 - 0.0
01/06:30am WSW 15 17 - - - - - - - 16.5 - 0.0
01/06:00am W 10 11 - - - - - - - 16.4 1008.0 0.0
01/05:30am W 10 11 - - - - - - - 16.5 - 0.0
01/05:00am W 7 8 - - - - - - - 16.4 - 0.0
01/04:30am WNW 6 7 - - - - - - - 16.5 - 0.0
01/04:00am NNW 7 9 - - - - - - - 16.4 - 0.0
01/03:30am N 8 10 - - - - - - - 16.0 - 0.0
01/03:00am N 11 12 - - - - - - - 15.9 1008.5 0.0
01/02:30am N 11 13 - - - - - - - 16.0 - 0.0
01/02:00am N 11 12 - - - - - - - 15.9 - 0.0
01/01:30am N 12 13 - - - - - - - 16.1 - 0.0
01/01:00am NNE 12 14 - - - - - - - 16.0 - 0.0
01/12:30am NNE 14 17 - - - - - - - 16.2 - 0.0
01/12:00am NE 14 17 - - - - - - - 16.3 1009.9 0.0
 
Date/Time
EDT
Wind Sea
Height
m
Swell Vis
km
Cloud Weather Temp
°C
Press
MSL
hPa
Rain since
9am
mm
Dir  Spd
kts
Gust
kts
Height
m
Period
s
Dir
28/11:30pm NNE 15 18 - - - - - - - 16.3 - 0.0
28/11:00pm NE 14 17 - - - - - - - 16.3 - 0.0
28/10:30pm NE 15 17 - - - - - - - 16.5 - 0.0
28/10:00pm NE 14 15 - - - - - - - 16.4 - 0.0
28/09:30pm NE 13 15 - - - - - - - 16.1 - 0.0
28/09:00pm NE 11 13 - - - - - - - 15.8 1011.0 0.0
28/08:30pm ENE 12 14 - - - - - - - 16.0 - 0.0
28/08:00pm ENE 12 13 - - - - - - - 16.2 - 0.0
28/07:30pm ENE 10 11 - - - - - - - 16.3 - 0.0
28/07:00pm ENE 10 11 - - - - - - - 17.5 - 0.0
28/06:30pm ENE 10 11 - - - - - - - 17.5 - 0.0
28/06:00pm ENE 11 12 - - - - - - - 18.8 1010.9 0.0
28/05:30pm ENE 11 13 - - - - - - - 19.2 - 0.0
28/05:00pm E 10 12 - - - - - - - 18.3 - 0.0
28/04:30pm E 11 14 - - - - - - - 19.7 - 0.0
28/04:00pm E 11 13 - - - - - - - 20.2 - 0.0
28/03:30pm E 10 12 - - - - - - - 20.9 - 0.0
28/03:00pm E 10 12 - - - - - - - 20.7 1012.1 0.0
28/02:30pm E 9 12 - - - - - - - 20.8 - 0.0
28/02:00pm E 9 13 - - - - - - - 21.4 - 0.0
28/01:30pm E 9 13 - - - - - - - 19.4 - 0.0
28/01:00pm E 9 12 - - - - - - - 19.4 - 0.0
28/12:30pm ENE 8 11 - - - - - - - 20.1 - 0.0
28/12:00pm E 8 11 - - - - - - - 19.3 1013.5 0.0
28/11:30am ENE 7 9 - - - - - - - 19.2 - 0.0
28/11:00am E 9 12 - - - - - - - 19.6 - 0.0
28/10:30am ENE 7 10 - - - - - - - 19.1 - 0.0
28/10:00am ENE 7 9 - - - - - - - 18.9 - 0.0
28/09:30am ENE 8 10 - - - - - - - 18.4 - 0.0
28/09:00am E 10 12 - - - - - - - 17.8 1013.2 0.0
28/08:30am E 9 10 - - - - - - - 17.4 - 0.0
28/08:00am E 8 10 - - - - - - - 16.7 - 0.0
28/07:30am E 7 9 - - - - - - - 15.5 - 0.0
28/07:00am NE 6 7 - - - - - - - 14.5 - 0.0
28/06:30am NE 7 8 - - - - - - - 14.4 - 0.0
28/06:00am NE 6 7 - - - - - - - 14.6 1012.8 0.0
28/05:30am ENE 6 8 - - - - - - - 14.5 - 0.0
28/05:00am E 8 10 - - - - - - - 14.8 - 0.0
28/04:30am E 9 10 - - - - - - - 14.8 - 0.0
28/04:00am ENE 10 11 - - - - - - - 14.8 - 0.0
28/03:30am E 9 10 - - - - - - - 14.9 - 0.0
28/03:00am ENE 11 11 - - - - - - - 15.1 1012.9 0.0
28/02:30am ENE 11 12 - - - - - - - 15.7 - 0.0
28/02:00am NE 10 12 - - - - - - - 15.8 - 0.0
28/01:30am ENE 10 11 - - - - - - - 15.8 - 0.0
28/01:00am ENE 10 11 - - - - - - - 15.7 - 0.0
28/12:30am E 10 12 - - - - - - - 15.4 - 0.0
28/12:00am E 12 13 - - - - - - - 15.7 1013.5 0.0
 
Date/Time
EDT
Wind Sea
Height
m
Swell Vis
km
Cloud Weather Temp
°C
Press
MSL
hPa
Rain since
9am
mm
Dir  Spd
kts
Gust
kts
Height
m
Period
s
Dir
27/11:30pm E 13 15 - - - - - - - 16.0 - 0.0
27/11:00pm E 11 13 - - - - - - - 16.1 - 0.0
27/10:30pm E 10 12 - - - - - - - 16.3 - 0.0
27/10:00pm E 9 11 - - - - - - - 16.3 - 0.0
27/09:30pm E 10 12 - - - - - - - 16.3 - 0.0
27/09:00pm E 11 13 - - - - - - - 16.4 1013.8 0.0
27/08:30pm E 11 13 - - - - - - - 16.4 - 0.0
27/08:00pm E 11 13 - - - - - - - 16.5 - 0.0
27/07:30pm E 11 13 - - - - - - - 16.7 - 0.0
27/07:00pm E 12 14 - - - - - - - 16.9 - 0.0
27/06:30pm E 13 15 - - - - - - - 17.2 - 0.0
27/06:00pm E 13 16 - - - - - - - 17.4 1012.4 0.0
27/05:30pm E 14 17 - - - - - - - 17.5 - 0.0
27/05:00pm E 15 17 - - - - - - - 17.9 - 0.0
27/04:30pm E 15 17 - - - - - - - 18.5 - 0.0
27/04:00pm E 14 16 - - - - - - - 18.3 - 0.0
27/03:30pm E 16 18 - - - - - - - 17.9 - 0.0
27/03:00pm E 14 17 - - - - - - - 18.2 1013.2 0.0
27/02:30pm E 16 19 - - - - - - - 17.8 - 0.0
27/02:00pm E 14 17 - - - - - - - 18.7 - 0.0

Other formats

Comma delimited format used in spreadsheet applications
http://www.bom.gov.au/fwo/IDT60701/IDT60701.94949.axf

JavaScript Object Notation format (JSON) in row-major order
http://www.bom.gov.au/fwo/IDT60701/IDT60701.94949.json

Data quality

Most of these data are generated automatically and are frequently updated. Quality checks on data are not normally performed. It is possible for incorrect values to appear. Refer to information at About Latest Weather Observations and please check the disclaimer before using these data.